createdAt,value
2023-07-18T00:00:39.745Z,8.60
2023-07-18T00:01:39.760Z,10.40
2023-07-18T00:02:39.715Z,9.60
2023-07-18T00:03:39.712Z,8.90
2023-07-18T00:04:39.693Z,9.50
2023-07-18T00:05:39.653Z,10.60
2023-07-18T00:06:39.627Z,9.00
2023-07-18T00:07:39.636Z,8.00
2023-07-18T00:08:39.599Z,8.80
2023-07-18T00:09:39.614Z,8.10
2023-07-18T00:10:39.607Z,9.10
2023-07-18T00:11:39.594Z,7.70
2023-07-18T00:12:39.566Z,11.00
2023-07-18T00:13:39.595Z,10.00
2023-07-18T00:14:39.557Z,9.00
2023-07-18T00:15:39.577Z,7.60
2023-07-18T00:16:39.599Z,10.30
2023-07-18T00:17:39.549Z,10.40
2023-07-18T00:18:39.527Z,10.60
2023-07-18T00:19:39.517Z,9.60
2023-07-18T00:20:39.530Z,8.90
2023-07-18T00:21:39.505Z,9.40
2023-07-18T00:22:39.535Z,10.60
2023-07-18T00:23:39.487Z,10.20
2023-07-18T00:24:39.462Z,8.70
2023-07-18T00:25:39.492Z,8.80
2023-07-18T00:26:39.505Z,10.00
2023-07-18T00:27:39.453Z,9.40
2023-07-18T00:28:39.442Z,8.70
2023-07-18T00:29:39.471Z,10.80
2023-07-18T00:30:39.411Z,9.90
2023-07-18T00:31:39.532Z,8.60
2023-07-18T00:32:39.439Z,9.20
2023-07-18T00:33:39.422Z,9.50
2023-07-18T00:34:39.387Z,9.90
2023-07-18T00:35:39.425Z,8.80
2023-07-18T00:36:39.372Z,9.20
2023-07-18T00:37:39.396Z,8.90
2023-07-18T00:38:39.350Z,11.10
2023-07-18T00:39:39.369Z,10.40
2023-07-18T00:40:39.352Z,10.00
2023-07-18T00:41:39.342Z,10.40
2023-07-18T00:42:39.360Z,9.40
2023-07-18T00:43:39.339Z,10.50
2023-07-18T00:44:39.317Z,9.30
2023-07-18T00:45:39.348Z,9.80
2023-07-18T00:46:39.381Z,10.70
2023-07-18T00:47:39.322Z,10.60
2023-07-18T00:48:39.325Z,10.00
2023-07-18T00:49:39.293Z,9.90
2023-07-18T00:50:39.266Z,9.60
2023-07-18T00:51:39.269Z,12.20
2023-07-18T00:52:39.284Z,10.60
2023-07-18T00:53:39.277Z,10.10
2023-07-18T00:54:39.222Z,8.70
2023-07-18T00:55:39.242Z,11.30
2023-07-18T00:56:39.200Z,9.80
2023-07-18T00:57:39.218Z,10.40
2023-07-18T00:58:39.194Z,12.50
2023-07-18T00:59:39.191Z,10.30
2023-07-18T01:00:39.175Z,12.40
2023-07-18T01:01:39.197Z,10.00
2023-07-18T01:02:39.295Z,11.60
2023-07-18T01:03:39.196Z,11.30
2023-07-18T01:04:39.174Z,10.00
2023-07-18T01:05:39.169Z,12.10
2023-07-18T01:06:39.157Z,9.40
2023-07-18T01:07:39.139Z,9.40
2023-07-18T01:08:39.167Z,10.70
2023-07-18T01:09:39.138Z,9.10
2023-07-18T01:10:39.118Z,10.60
2023-07-18T01:11:39.097Z,11.40
2023-07-18T01:12:39.073Z,8.90
2023-07-18T01:13:39.099Z,9.50
2023-07-18T01:14:39.072Z,11.50
2023-07-18T01:15:39.169Z,12.80
2023-07-18T01:16:39.053Z,10.80
2023-07-18T01:17:39.116Z,13.40
2023-07-18T01:18:39.025Z,12.00
2023-07-18T01:19:39.051Z,11.60
2023-07-18T01:20:39.061Z,9.50
2023-07-18T01:21:39.071Z,10.50
2023-07-18T01:22:39.046Z,12.40
2023-07-18T01:23:39.020Z,10.70
2023-07-18T01:24:38.984Z,12.90
2023-07-18T01:25:39.000Z,9.90
2023-07-18T01:26:38.968Z,12.40
2023-07-18T01:27:38.991Z,11.30
2023-07-18T01:28:38.969Z,12.50
2023-07-18T01:29:38.964Z,12.10
2023-07-18T01:30:38.961Z,12.70
2023-07-18T01:31:38.994Z,11.10
2023-07-18T01:32:38.977Z,10.70
2023-07-18T01:33:38.977Z,10.90
2023-07-18T01:34:38.905Z,13.30
2023-07-18T01:35:38.922Z,10.70
2023-07-18T01:36:38.928Z,11.70
2023-07-18T01:37:38.904Z,10.30
2023-07-18T01:38:38.881Z,11.50
2023-07-18T01:39:38.875Z,11.80
2023-07-18T01:40:38.867Z,11.20
2023-07-18T01:41:38.889Z,10.90
2023-07-18T01:42:38.904Z,9.70
2023-07-18T01:43:38.876Z,10.40
2023-07-18T01:44:38.862Z,10.80
2023-07-18T01:45:38.852Z,11.10
2023-07-18T01:46:38.821Z,11.80
2023-07-18T01:47:38.929Z,11.00
2023-07-18T01:48:38.815Z,12.30
2023-07-18T01:49:38.795Z,13.60
2023-07-18T01:50:38.782Z,13.00
2023-07-18T01:51:38.807Z,13.60
2023-07-18T01:52:38.780Z,13.40
2023-07-18T01:53:38.792Z,13.90
2023-07-18T01:54:38.752Z,13.90
2023-07-18T01:55:38.756Z,11.60
2023-07-18T01:56:38.728Z,13.50
2023-07-18T01:57:38.738Z,12.90
2023-07-18T01:58:38.723Z,12.20
2023-07-18T01:59:38.737Z,14.20
2023-07-18T02:00:38.754Z,15.40
2023-07-18T02:01:38.715Z,11.10
2023-07-18T02:02:38.815Z,12.50
2023-07-18T02:03:38.734Z,11.80
2023-07-18T02:04:38.676Z,12.20
2023-07-18T02:05:38.677Z,13.40
2023-07-18T02:06:38.683Z,13.50
2023-07-18T02:07:38.666Z,13.90
2023-07-18T02:08:38.650Z,13.80
2023-07-18T02:09:38.647Z,12.40
2023-07-18T02:10:38.647Z,14.10
2023-07-18T02:11:38.664Z,12.10
2023-07-18T02:12:38.611Z,12.80
2023-07-18T02:13:38.626Z,12.50
2023-07-18T02:14:38.599Z,12.50
2023-07-18T02:15:38.600Z,11.60
2023-07-18T02:16:38.613Z,14.60
2023-07-18T02:17:38.601Z,12.60
2023-07-18T02:18:38.570Z,13.60
2023-07-18T02:19:38.567Z,12.30
2023-07-18T02:20:38.596Z,14.70
2023-07-18T02:21:38.572Z,13.70
2023-07-18T02:22:38.577Z,12.70
2023-07-18T02:23:38.577Z,13.50
2023-07-18T02:24:38.556Z,16.90
2023-07-18T02:25:38.531Z,13.70
2023-07-18T02:26:38.513Z,12.50
2023-07-18T02:27:38.520Z,12.80
2023-07-18T02:28:38.524Z,13.10
2023-07-18T02:29:38.548Z,13.60
2023-07-18T02:30:38.544Z,15.80
2023-07-18T02:31:38.523Z,13.40
2023-07-18T02:32:38.480Z,14.40
2023-07-18T02:33:38.490Z,12.30
2023-07-18T02:34:38.508Z,13.20
2023-07-18T02:35:38.475Z,15.90
2023-07-18T02:36:38.460Z,14.30
2023-07-18T02:37:38.463Z,15.10
2023-07-18T02:38:38.431Z,13.70
2023-07-18T02:39:38.463Z,13.90
2023-07-18T02:40:38.459Z,14.20
2023-07-18T02:41:38.449Z,12.40
2023-07-18T02:42:38.440Z,13.40
2023-07-18T02:43:38.415Z,14.10
2023-07-18T02:44:38.389Z,14.30
2023-07-18T02:45:38.417Z,11.80
2023-07-18T02:46:38.419Z,13.20
2023-07-18T02:47:38.467Z,13.90
2023-07-18T02:48:38.361Z,14.00
2023-07-18T02:49:38.362Z,13.20
2023-07-18T02:50:38.373Z,12.00
2023-07-18T02:51:38.350Z,12.70
2023-07-18T02:52:38.330Z,14.60
2023-07-18T02:53:38.343Z,13.90
2023-07-18T02:54:38.322Z,14.60
2023-07-18T02:55:38.327Z,16.70
2023-07-18T02:56:38.311Z,16.20
2023-07-18T02:57:38.397Z,13.40
2023-07-18T02:58:38.299Z,18.30
2023-07-18T02:59:38.310Z,13.00
2023-07-18T03:00:38.312Z,12.60
2023-07-18T03:01:38.300Z,14.70
2023-07-18T03:02:38.334Z,13.70
2023-07-18T03:03:38.374Z,11.60
2023-07-18T03:04:38.231Z,11.70
2023-07-18T03:05:38.238Z,14.00
2023-07-18T03:06:38.227Z,15.80
2023-07-18T03:07:38.217Z,12.90
2023-07-18T03:08:38.239Z,13.90
2023-07-18T03:09:38.214Z,12.60
2023-07-18T03:10:38.213Z,14.10
2023-07-18T03:11:38.205Z,16.60
2023-07-18T03:12:38.178Z,15.10
2023-07-18T03:13:38.189Z,15.00
2023-07-18T03:14:38.183Z,13.00
2023-07-18T03:15:38.178Z,15.30
2023-07-18T03:16:38.199Z,14.30
2023-07-18T03:17:38.203Z,15.40
2023-07-18T03:18:38.128Z,13.40
2023-07-18T03:19:38.171Z,14.40
2023-07-18T03:20:38.132Z,16.10
2023-07-18T03:21:38.142Z,15.20
2023-07-18T03:22:38.192Z,15.30
2023-07-18T03:23:38.125Z,14.40
2023-07-18T03:24:38.114Z,16.40
2023-07-18T03:25:38.103Z,15.60
2023-07-18T03:26:38.082Z,15.80
2023-07-18T03:27:38.081Z,15.80
2023-07-18T03:28:38.094Z,16.20
2023-07-18T03:29:38.095Z,19.30
2023-07-18T03:30:38.056Z,17.80
2023-07-18T03:31:38.080Z,14.90
2023-07-18T03:32:38.034Z,15.00
2023-07-18T03:33:38.036Z,14.00
2023-07-18T03:34:38.020Z,16.00
2023-07-18T03:35:38.078Z,14.40
2023-07-18T03:36:38.502Z,14.80
2023-07-18T03:37:38.009Z,13.00
2023-07-18T03:38:37.995Z,14.20
2023-07-18T03:39:37.997Z,17.50
2023-07-18T03:40:37.966Z,15.10
2023-07-18T03:41:38.016Z,15.50
2023-07-18T03:42:37.948Z,15.90
2023-07-18T03:43:37.973Z,16.90
2023-07-18T03:44:37.932Z,14.70
2023-07-18T03:45:37.955Z,18.50
2023-07-18T03:46:38.043Z,16.20
2023-07-18T03:47:37.995Z,17.40
2023-07-18T03:48:37.968Z,15.70
2023-07-18T03:49:37.914Z,16.70
2023-07-18T03:50:37.908Z,15.40
2023-07-18T03:51:38.149Z,16.20
2023-07-18T03:52:37.892Z,14.70
2023-07-18T03:53:37.929Z,15.90
2023-07-18T03:54:37.893Z,15.80
2023-07-18T03:55:37.887Z,18.00
2023-07-18T03:56:37.874Z,14.30
2023-07-18T03:57:37.866Z,14.80
2023-07-18T03:58:37.848Z,16.70
2023-07-18T03:59:37.859Z,15.70
2023-07-18T04:00:37.843Z,14.60
2023-07-18T04:01:37.890Z,14.40
2023-07-18T04:02:37.855Z,17.50
2023-07-18T04:03:37.827Z,13.10
2023-07-18T04:04:37.812Z,15.70
2023-07-18T04:05:37.801Z,17.70
2023-07-18T04:06:37.796Z,16.00
2023-07-18T04:07:37.812Z,15.30
2023-07-18T04:08:39.244Z,15.80
2023-07-18T04:09:37.791Z,14.90
2023-07-18T04:10:37.749Z,16.60
2023-07-18T04:11:37.761Z,14.20
2023-07-18T04:12:37.754Z,13.30
2023-07-18T04:13:37.751Z,14.90
2023-07-18T04:14:37.727Z,12.40
2023-07-18T04:15:37.742Z,13.40
2023-07-18T04:16:37.747Z,12.10
2023-07-18T04:17:37.994Z,12.40
2023-07-18T04:18:37.733Z,12.40
2023-07-18T04:19:37.733Z,15.30
2023-07-18T04:20:37.671Z,12.00
2023-07-18T04:21:37.676Z,11.20
2023-07-18T04:22:37.672Z,10.90
2023-07-18T04:23:37.676Z,10.80
2023-07-18T04:24:37.680Z,11.00
2023-07-18T04:25:37.651Z,13.40
2023-07-18T04:26:37.646Z,12.90
2023-07-18T04:27:37.670Z,11.80
2023-07-18T04:28:37.654Z,12.60
2023-07-18T04:29:37.644Z,12.20
2023-07-18T04:30:37.611Z,11.60
2023-07-18T04:31:37.614Z,10.60
2023-07-18T04:32:37.630Z,10.70
2023-07-18T04:33:37.685Z,13.30
2023-07-18T04:34:37.625Z,9.80
2023-07-18T04:35:37.578Z,11.70
2023-07-18T04:36:37.573Z,12.80
2023-07-18T04:37:37.566Z,9.70
2023-07-18T04:38:37.536Z,12.10
2023-07-18T04:39:37.564Z,11.50
2023-07-18T04:40:37.532Z,11.50
2023-07-18T04:41:49.398Z,12.70
2023-07-18T04:42:38.555Z,11.80
2023-07-18T04:43:37.510Z,10.20
2023-07-18T04:44:37.479Z,12.00
2023-07-18T04:45:37.499Z,10.60
2023-07-18T04:46:37.767Z,11.80
2023-07-18T04:47:37.617Z,10.50
2023-07-18T04:48:37.450Z,10.80
2023-07-18T04:49:37.475Z,11.30
2023-07-18T04:50:37.462Z,11.60
2023-07-18T04:51:37.466Z,11.20
2023-07-18T04:52:37.432Z,11.60
2023-07-18T04:53:37.436Z,10.20
2023-07-18T04:54:37.393Z,9.20
2023-07-18T04:55:37.396Z,8.80
2023-07-18T04:56:37.372Z,9.60
2023-07-18T04:57:37.406Z,10.20
2023-07-18T04:58:37.392Z,12.80
2023-07-18T04:59:37.365Z,9.70
2023-07-18T05:00:37.368Z,10.80
2023-07-18T05:01:37.365Z,10.00
2023-07-18T05:02:37.365Z,10.50
2023-07-18T05:03:48.230Z,11.40
2023-07-18T05:04:38.457Z,9.70
2023-07-18T05:05:37.315Z,12.00
2023-07-18T05:06:37.295Z,10.20
2023-07-18T05:07:37.317Z,9.30
2023-07-18T05:08:37.270Z,8.60
2023-07-18T05:09:37.303Z,8.30
2023-07-18T05:10:37.256Z,9.70
2023-07-18T05:11:37.277Z,9.80
2023-07-18T05:12:37.235Z,11.10
2023-07-18T05:13:37.272Z,10.30
2023-07-18T05:14:37.223Z,10.60
2023-07-18T05:15:37.284Z,8.90
2023-07-18T05:16:37.205Z,11.60
2023-07-18T05:17:37.263Z,10.30
2023-07-18T05:18:37.254Z,8.30
2023-07-18T05:19:37.201Z,12.20
2023-07-18T05:20:37.172Z,10.20
2023-07-18T05:21:37.173Z,8.70
2023-07-18T05:22:37.169Z,9.60
2023-07-18T05:23:37.162Z,8.10
2023-07-18T05:24:37.170Z,8.70
2023-07-18T05:25:40.435Z,8.80
2023-07-18T05:26:37.118Z,13.40
2023-07-18T05:27:37.148Z,10.90
2023-07-18T05:28:37.108Z,9.60
2023-07-18T05:29:37.141Z,9.30
2023-07-18T05:30:37.109Z,8.20
2023-07-18T05:31:37.207Z,8.30
2023-07-18T05:32:37.090Z,10.60
2023-07-18T05:33:37.103Z,8.00
2023-07-18T05:34:37.080Z,8.80
2023-07-18T05:35:37.056Z,9.40
2023-07-18T05:36:37.062Z,10.30
2023-07-18T05:37:37.069Z,8.40
2023-07-18T05:38:37.028Z,8.70
2023-07-18T05:39:37.033Z,8.70
2023-07-18T05:40:37.055Z,8.50
2023-07-18T05:41:37.017Z,8.90
2023-07-18T05:42:36.986Z,8.90
2023-07-18T05:43:37.001Z,9.30
2023-07-18T05:44:37.050Z,9.70
2023-07-18T05:45:37.007Z,10.90
2023-07-18T05:46:39.783Z,9.80
2023-07-18T05:47:38.240Z,8.40
2023-07-18T05:48:36.960Z,9.80
2023-07-18T05:49:36.967Z,9.80
2023-07-18T05:50:36.967Z,9.70
2023-07-18T05:51:36.939Z,9.60
2023-07-18T05:52:36.922Z,10.90
2023-07-18T05:53:36.915Z,9.70
2023-07-18T05:54:39.499Z,8.60
2023-07-18T05:55:36.920Z,8.90
2023-07-18T05:56:36.896Z,9.00
2023-07-18T05:57:36.907Z,10.20
2023-07-18T05:58:36.878Z,9.70
2023-07-18T05:59:36.916Z,9.30
2023-07-18T06:00:36.881Z,9.80
2023-07-18T06:01:36.923Z,9.20
2023-07-18T06:02:36.878Z,11.50
2023-07-18T06:03:36.964Z,9.80
2023-07-18T06:04:36.847Z,9.20
2023-07-18T06:05:36.857Z,8.80
2023-07-18T06:06:36.827Z,10.50
2023-07-18T06:07:36.846Z,8.70
2023-07-18T06:08:36.802Z,8.10
2023-07-18T06:09:36.805Z,9.90
2023-07-18T06:10:36.790Z,9.70
2023-07-18T06:11:36.806Z,7.50
2023-07-18T06:12:36.777Z,8.20
2023-07-18T06:13:36.826Z,8.70
2023-07-18T06:14:36.815Z,7.70
2023-07-18T06:15:36.773Z,9.70
2023-07-18T06:16:36.792Z,7.40
2023-07-18T06:17:36.813Z,9.00
2023-07-18T06:18:36.726Z,8.90
2023-07-18T06:19:36.765Z,9.60
2023-07-18T06:20:36.717Z,8.50
2023-07-18T06:21:36.750Z,10.40
2023-07-18T06:22:36.758Z,8.30
2023-07-18T06:23:36.720Z,9.00
2023-07-18T06:24:36.693Z,7.60
2023-07-18T06:25:36.726Z,11.20
2023-07-18T06:26:36.675Z,8.30
2023-07-18T06:27:36.719Z,8.10
2023-07-18T06:28:36.674Z,9.70
2023-07-18T06:29:36.681Z,7.60
2023-07-18T06:30:36.728Z,8.70
2023-07-18T06:31:36.787Z,8.50
2023-07-18T06:32:36.642Z,9.40
2023-07-18T06:33:36.652Z,8.10
2023-07-18T06:34:36.658Z,7.20
2023-07-18T06:35:36.631Z,10.40
2023-07-18T06:36:36.663Z,8.80
2023-07-18T06:37:36.614Z,8.40
2023-07-18T06:38:36.603Z,8.60
2023-07-18T06:39:36.633Z,8.60
2023-07-18T06:40:36.619Z,7.70
2023-07-18T06:41:36.600Z,10.00
2023-07-18T06:42:36.561Z,8.40
2023-07-18T06:43:36.570Z,7.50
2023-07-18T06:44:36.556Z,10.80
2023-07-18T06:45:36.588Z,8.70
2023-07-18T06:46:36.560Z,7.80
2023-07-18T06:47:36.610Z,7.80
2023-07-18T06:48:36.519Z,9.50
2023-07-18T06:49:36.539Z,9.00
2023-07-18T06:50:36.611Z,9.20
2023-07-18T06:51:36.530Z,9.50
2023-07-18T06:52:37.112Z,9.40
2023-07-18T06:53:36.507Z,9.90
2023-07-18T06:54:36.482Z,9.80
2023-07-18T06:55:36.490Z,7.90
2023-07-18T06:56:36.498Z,9.80
2023-07-18T06:57:36.487Z,10.20
2023-07-18T06:58:36.461Z,7.50
2023-07-18T06:59:36.497Z,8.30
2023-07-18T07:00:36.467Z,6.80
2023-07-18T07:01:36.515Z,7.60
2023-07-18T07:02:36.463Z,7.80
2023-07-18T07:03:36.498Z,6.90
2023-07-18T07:04:36.418Z,7.50
2023-07-18T07:05:36.461Z,9.10
2023-07-18T07:06:36.407Z,7.40
2023-07-18T07:07:36.418Z,7.90
2023-07-18T07:08:36.385Z,8.20
2023-07-18T07:09:36.398Z,8.10
2023-07-18T07:10:36.381Z,8.70
2023-07-18T07:11:36.425Z,7.10
2023-07-18T07:12:37.456Z,7.30
2023-07-18T07:13:36.394Z,8.20
2023-07-18T07:14:36.349Z,7.20
2023-07-18T07:15:36.394Z,6.80
2023-07-18T07:16:36.454Z,7.20
2023-07-18T07:17:36.385Z,7.80
2023-07-18T07:18:36.342Z,6.80
2023-07-18T07:19:36.352Z,6.50
2023-07-18T07:20:36.326Z,6.70
2023-07-18T07:21:36.441Z,7.00
2023-07-18T07:22:36.403Z,6.10
2023-07-18T07:23:36.324Z,6.90
2023-07-18T07:24:36.280Z,7.50
2023-07-18T07:25:36.286Z,8.40
2023-07-18T07:26:36.295Z,6.20
2023-07-18T07:27:36.274Z,6.00
2023-07-18T07:28:36.269Z,6.50
2023-07-18T07:29:36.253Z,5.90
2023-07-18T07:30:36.258Z,5.80
2023-07-18T07:31:36.275Z,6.00
2023-07-18T07:32:36.395Z,6.00
2023-07-18T07:33:37.499Z,6.60
2023-07-18T07:34:37.705Z,5.50
2023-07-18T07:35:36.212Z,6.00
2023-07-18T07:36:36.247Z,7.50
2023-07-18T07:37:36.211Z,5.40
2023-07-18T07:38:36.183Z,5.20
2023-07-18T07:39:36.221Z,5.40
2023-07-18T07:40:36.182Z,5.70
2023-07-18T07:41:36.180Z,6.20
2023-07-18T07:42:36.232Z,6.40
2023-07-18T07:43:36.165Z,7.10
2023-07-18T07:44:36.134Z,5.10
2023-07-18T07:45:36.192Z,5.30
2023-07-18T07:46:36.151Z,4.70
2023-07-18T07:47:36.164Z,5.30
2023-07-18T07:48:36.119Z,5.20
2023-07-18T07:49:36.128Z,4.60
2023-07-18T07:50:36.134Z,4.60
2023-07-18T07:51:36.155Z,4.20
2023-07-18T07:52:36.098Z,3.50
2023-07-18T07:53:36.121Z,3.30
2023-07-18T07:54:36.103Z,4.30
2023-07-18T07:55:36.091Z,4.90
2023-07-18T07:56:36.066Z,5.30
2023-07-18T07:57:36.100Z,4.90
2023-07-18T07:58:36.057Z,3.70
2023-07-18T07:59:36.052Z,4.30
2023-07-18T08:00:36.053Z,3.80
2023-07-18T08:01:36.074Z,4.10
2023-07-18T08:02:36.082Z,4.80
2023-07-18T08:03:36.048Z,4.40
2023-07-18T08:04:36.043Z,5.40
2023-07-18T08:05:36.033Z,4.30
2023-07-18T08:06:36.027Z,3.80
2023-07-18T08:07:35.996Z,5.50
2023-07-18T08:08:35.994Z,3.80
2023-07-18T08:09:35.983Z,4.20
2023-07-18T08:10:35.963Z,4.80
2023-07-18T08:11:35.961Z,4.60
2023-07-18T08:12:35.987Z,4.50
2023-07-18T08:13:35.970Z,5.40
2023-07-18T08:14:36.162Z,4.80
2023-07-18T08:15:35.982Z,3.80
2023-07-18T08:16:35.965Z,4.40
2023-07-18T08:17:35.965Z,4.00
2023-07-18T08:18:35.934Z,3.80
2023-07-18T08:19:35.916Z,4.10
2023-07-18T08:20:35.874Z,3.40
2023-07-18T08:21:35.915Z,4.20
2023-07-18T08:22:35.893Z,4.00
2023-07-18T08:23:35.879Z,3.60
2023-07-18T08:24:35.884Z,3.50
2023-07-18T08:25:35.901Z,4.50
2023-07-18T08:26:35.860Z,4.40
2023-07-18T08:27:35.864Z,4.80
2023-07-18T08:28:35.836Z,5.50
2023-07-18T08:29:35.889Z,5.60
2023-07-18T08:30:35.849Z,4.20
2023-07-18T08:31:35.873Z,4.20
2023-07-18T08:32:35.863Z,4.20
2023-07-18T08:33:35.816Z,4.80
2023-07-18T08:34:35.803Z,4.80
2023-07-18T08:35:35.834Z,5.80
2023-07-18T08:36:35.781Z,4.40
2023-07-18T08:37:35.807Z,5.50
2023-07-18T08:38:35.793Z,4.90
2023-07-18T08:39:35.792Z,5.00
2023-07-18T08:40:35.808Z,4.00
2023-07-18T08:41:35.761Z,4.40
2023-07-18T08:42:35.746Z,5.60
2023-07-18T08:43:35.776Z,4.10
2023-07-18T08:44:35.745Z,6.20
2023-07-18T08:45:35.758Z,5.20
2023-07-18T08:46:35.796Z,6.40
2023-07-18T08:47:35.782Z,4.70
2023-07-18T08:48:35.726Z,6.00
2023-07-18T08:49:36.727Z,4.80
2023-07-18T08:50:35.709Z,5.50
2023-07-18T08:51:35.705Z,3.70
2023-07-18T08:52:35.726Z,4.70
2023-07-18T08:53:35.697Z,5.70
2023-07-18T08:54:35.898Z,5.10
2023-07-18T08:55:35.730Z,5.10
2023-07-18T08:56:35.659Z,5.50
2023-07-18T08:57:35.680Z,5.20
2023-07-18T08:58:35.665Z,5.20
2023-07-18T08:59:35.681Z,5.00
2023-07-18T09:00:35.634Z,6.50
2023-07-18T09:01:35.660Z,4.40
2023-07-18T09:02:35.712Z,4.30
2023-07-18T09:03:35.662Z,5.30
2023-07-18T09:04:35.608Z,5.40
2023-07-18T09:05:35.637Z,5.00
2023-07-18T09:06:35.583Z,3.90
2023-07-18T09:07:35.601Z,5.10
2023-07-18T09:08:35.568Z,4.80
2023-07-18T09:09:35.590Z,5.60
2023-07-18T09:10:35.570Z,5.30
2023-07-18T09:11:35.611Z,5.50
2023-07-18T09:12:35.548Z,4.90
2023-07-18T09:13:35.555Z,4.50
2023-07-18T09:14:35.578Z,5.60
2023-07-18T09:15:35.555Z,5.90
2023-07-18T09:16:35.521Z,5.00
2023-07-18T09:17:35.683Z,7.30
2023-07-18T09:18:35.529Z,5.30
2023-07-18T09:19:35.526Z,4.80
2023-07-18T09:20:35.520Z,5.30
2023-07-18T09:21:35.536Z,4.40
2023-07-18T09:22:35.535Z,5.30
2023-07-18T09:23:35.508Z,3.80
2023-07-18T09:24:35.476Z,4.20
2023-07-18T09:25:35.512Z,3.30
2023-07-18T09:26:35.457Z,4.70
2023-07-18T09:27:35.483Z,3.80
2023-07-18T09:28:35.446Z,4.10
2023-07-18T09:29:35.456Z,4.90
2023-07-18T09:30:35.422Z,4.90
2023-07-18T09:31:35.485Z,7.00
2023-07-18T09:32:35.470Z,5.30
2023-07-18T09:33:35.416Z,4.90
2023-07-18T09:34:35.414Z,4.20
2023-07-18T09:35:35.449Z,4.90
2023-07-18T09:36:36.979Z,5.10
2023-07-18T09:37:35.416Z,4.90
2023-07-18T09:38:35.384Z,5.30
2023-07-18T09:39:35.405Z,4.20
2023-07-18T09:40:35.399Z,5.10
2023-07-18T09:41:35.427Z,3.90
2023-07-18T09:42:35.374Z,3.70
2023-07-18T09:43:36.727Z,6.40
2023-07-18T09:44:37.301Z,4.60
2023-07-18T09:45:35.343Z,4.20
2023-07-18T09:46:35.446Z,5.40
2023-07-18T09:47:35.375Z,3.40
2023-07-18T09:48:44.595Z,3.70
2023-07-18T09:49:40.795Z,4.60
2023-07-18T09:50:35.298Z,4.00
2023-07-18T09:51:35.334Z,4.30
2023-07-18T09:52:35.295Z,5.70
2023-07-18T09:53:35.312Z,5.00
2023-07-18T09:54:35.348Z,5.00
2023-07-18T09:55:35.300Z,5.40
2023-07-18T09:56:35.245Z,4.70
2023-07-18T09:57:35.277Z,4.90
2023-07-18T09:58:35.237Z,5.20
2023-07-18T09:59:35.248Z,6.10
2023-07-18T10:00:35.228Z,4.70
2023-07-18T10:01:35.290Z,5.20
2023-07-18T10:02:35.354Z,7.10
2023-07-18T10:03:35.282Z,4.40
2023-07-18T10:04:35.224Z,6.30
2023-07-18T10:05:35.251Z,5.30
2023-07-18T10:06:35.193Z,5.50
2023-07-18T10:07:35.200Z,5.50
2023-07-18T10:08:35.193Z,5.50
2023-07-18T10:09:35.187Z,3.90
2023-07-18T10:10:35.199Z,5.10
2023-07-18T10:11:35.208Z,4.80
2023-07-18T10:12:35.178Z,7.80
2023-07-18T10:13:35.211Z,4.30
2023-07-18T10:14:35.132Z,4.00
2023-07-18T10:15:35.151Z,4.30
2023-07-18T10:16:35.142Z,6.70
2023-07-18T10:17:35.339Z,6.50
2023-07-18T10:18:35.153Z,5.10
2023-07-18T10:19:35.121Z,4.70
2023-07-18T10:20:37.868Z,4.70
2023-07-18T10:21:35.116Z,4.60
2023-07-18T10:22:35.142Z,5.20
2023-07-18T10:23:35.091Z,3.90
2023-07-18T10:24:35.086Z,4.50
2023-07-18T10:25:35.067Z,5.90
2023-07-18T10:26:35.059Z,3.90
2023-07-18T10:27:35.050Z,4.90
2023-07-18T10:28:35.036Z,5.40
2023-07-18T10:29:35.044Z,4.30
2023-07-18T10:30:35.058Z,5.70
2023-07-18T10:31:35.070Z,8.90
2023-07-18T10:32:35.058Z,5.30
2023-07-18T10:33:35.014Z,4.80
2023-07-18T10:34:34.999Z,5.90
2023-07-18T10:35:35.037Z,5.70
2023-07-18T10:36:34.976Z,4.10
2023-07-18T10:37:35.021Z,4.90
2023-07-18T10:38:35.015Z,4.30
2023-07-18T10:39:34.977Z,4.60
2023-07-18T10:40:34.949Z,10.70
2023-07-18T10:41:34.984Z,4.60
2023-07-18T10:42:34.944Z,4.40
2023-07-18T10:43:34.952Z,5.50
2023-07-18T10:44:34.930Z,4.90
2023-07-18T10:45:35.004Z,6.70
2023-07-18T10:46:34.979Z,4.60
2023-07-18T10:47:34.960Z,4.80
2023-07-18T10:48:34.890Z,6.50
2023-07-18T10:49:34.921Z,4.30
2023-07-18T10:50:34.893Z,5.50
2023-07-18T10:51:34.904Z,5.40
2023-07-18T10:52:34.901Z,4.50
2023-07-18T10:53:34.930Z,5.20
2023-07-18T10:54:34.849Z,4.70
2023-07-18T10:55:34.887Z,6.00
2023-07-18T10:56:34.869Z,5.00
2023-07-18T10:57:34.898Z,4.30
2023-07-18T10:58:34.854Z,3.80
2023-07-18T10:59:34.841Z,4.50
2023-07-18T11:00:34.827Z,5.00
2023-07-18T11:01:34.854Z,6.90
2023-07-18T11:02:34.844Z,4.70
2023-07-18T11:03:34.865Z,4.70
2023-07-18T11:04:34.860Z,4.90
2023-07-18T11:05:34.807Z,4.30
2023-07-18T11:06:34.786Z,5.50
2023-07-18T11:07:34.817Z,5.20
2023-07-18T11:08:34.772Z,8.10
2023-07-18T11:09:34.814Z,3.60
2023-07-18T11:10:34.861Z,10.00
2023-07-18T11:11:34.805Z,7.80
2023-07-18T11:12:34.748Z,7.50
2023-07-18T11:13:34.789Z,4.90
2023-07-18T11:14:34.737Z,4.70
2023-07-18T11:15:34.729Z,5.50
2023-07-18T11:16:34.799Z,4.70
2023-07-18T11:17:34.739Z,6.40
2023-07-18T11:18:34.787Z,5.30
2023-07-18T11:19:34.705Z,5.60
2023-07-18T11:20:34.688Z,5.30
2023-07-18T11:21:34.702Z,5.20
2023-07-18T11:22:34.756Z,5.60
2023-07-18T11:23:34.677Z,6.00
2023-07-18T11:24:34.677Z,4.30
2023-07-18T11:25:34.674Z,4.90
2023-07-18T11:26:34.650Z,4.70
2023-07-18T11:27:34.669Z,4.80
2023-07-18T11:28:34.619Z,8.30
2023-07-18T11:29:34.643Z,4.70
2023-07-18T11:30:34.633Z,4.60
2023-07-18T11:31:40.777Z,5.20
2023-07-18T11:32:35.671Z,4.00
2023-07-18T11:33:34.616Z,5.50
2023-07-18T11:34:34.598Z,5.80
2023-07-18T11:35:34.623Z,5.20
2023-07-18T11:36:34.605Z,6.20
2023-07-18T11:37:41.545Z,5.30
2023-07-18T11:38:35.541Z,5.50
2023-07-18T11:39:34.584Z,5.20
2023-07-18T11:40:34.555Z,5.60
2023-07-18T11:41:34.555Z,4.00
2023-07-18T11:42:34.533Z,7.20
2023-07-18T11:43:34.540Z,4.20
2023-07-18T11:44:34.542Z,7.00
2023-07-18T11:45:34.525Z,6.00
2023-07-18T11:46:34.509Z,4.20
2023-07-18T11:47:34.614Z,4.90
2023-07-18T11:48:34.593Z,6.10
2023-07-18T11:49:34.524Z,5.30
2023-07-18T11:50:34.493Z,5.90
2023-07-18T11:51:34.522Z,5.20
2023-07-18T11:52:34.454Z,4.80
2023-07-18T11:53:34.501Z,6.00
2023-07-18T11:54:34.492Z,6.60
2023-07-18T11:55:34.477Z,5.10
2023-07-18T11:56:34.418Z,4.80
2023-07-18T11:57:34.475Z,5.40
2023-07-18T11:58:34.459Z,5.20
2023-07-18T11:59:34.474Z,6.20
2023-07-18T12:00:34.392Z,4.90
2023-07-18T12:01:36.384Z,4.60
2023-07-18T12:02:34.484Z,5.80
2023-07-18T12:03:34.514Z,5.10
2023-07-18T12:04:34.409Z,4.50
2023-07-18T12:05:34.410Z,5.40
2023-07-18T12:06:34.379Z,4.40
2023-07-18T12:07:34.398Z,6.20
2023-07-18T12:08:34.376Z,4.90
2023-07-18T12:09:34.346Z,6.50
2023-07-18T12:10:34.369Z,5.30
2023-07-18T12:11:34.335Z,5.40
2023-07-18T12:12:34.333Z,5.90
2023-07-18T12:13:34.336Z,4.90
2023-07-18T12:14:34.351Z,5.70
2023-07-18T12:15:37.131Z,6.00
2023-07-18T12:16:34.352Z,3.80
2023-07-18T12:17:34.357Z,6.50
2023-07-18T12:18:34.272Z,4.30
2023-07-18T12:19:34.296Z,6.90
2023-07-18T12:20:34.291Z,6.60
2023-07-18T12:21:34.315Z,4.00
2023-07-18T12:22:34.357Z,6.40
2023-07-18T12:23:34.253Z,3.90
2023-07-18T12:24:34.259Z,6.10
2023-07-18T12:25:34.264Z,5.00
2023-07-18T12:26:34.235Z,5.20
2023-07-18T12:27:34.259Z,6.10
2023-07-18T12:28:34.197Z,4.80
2023-07-18T12:29:34.237Z,5.20
2023-07-18T12:30:34.208Z,5.50
2023-07-18T12:31:34.295Z,4.70
2023-07-18T12:32:34.280Z,4.90
2023-07-18T12:33:34.277Z,5.30
2023-07-18T12:34:34.162Z,5.80
2023-07-18T12:35:34.180Z,5.70
2023-07-18T12:36:34.154Z,5.60
2023-07-18T12:37:34.159Z,5.20
2023-07-18T12:38:34.147Z,6.60
2023-07-18T12:39:34.148Z,6.40
2023-07-18T12:40:34.199Z,4.70
2023-07-18T12:41:34.166Z,7.50
2023-07-18T12:42:34.102Z,4.90
2023-07-18T12:43:34.144Z,4.70
2023-07-18T12:44:34.132Z,6.00
2023-07-18T12:45:34.119Z,8.30
2023-07-18T12:46:34.118Z,4.60
2023-07-18T12:47:34.172Z,5.60
2023-07-18T12:48:34.089Z,5.30
2023-07-18T12:50:34.106Z,4.60
2023-07-18T12:51:34.114Z,6.30
2023-07-18T12:52:34.065Z,6.50
2023-07-18T12:53:34.072Z,6.40
2023-07-18T12:54:34.037Z,7.00
2023-07-18T12:55:34.050Z,4.80
2023-07-18T12:56:34.012Z,6.20
2023-07-18T12:57:34.020Z,7.70
2023-07-18T12:58:34.054Z,5.70
2023-07-18T12:59:34.040Z,4.70
2023-07-18T13:00:34.003Z,5.10
2023-07-18T13:01:34.042Z,8.90
2023-07-18T13:02:34.075Z,5.60
2023-07-18T13:03:34.480Z,5.00
2023-07-18T13:04:33.993Z,6.70
2023-07-18T13:05:34.009Z,5.00
2023-07-18T13:06:33.966Z,6.00
2023-07-18T13:07:33.981Z,4.50
2023-07-18T13:08:33.936Z,5.80
2023-07-18T13:09:33.933Z,6.40
2023-07-18T13:10:33.921Z,5.90